TAR106 DTTJ-DTTA
Flight info
| Callsign | TAR106 |
|---|---|
| Flight time | 0h 46m |
| Altitude | 24000 |
| Route | BISKO1A BISKO A411 TUC |
| Aircraft | A20N/M-SDE2E3FGHIRWXY/LB1 |
Departure
| Time | 2026-04-17 20:23 |
|---|---|
| Airport | Djerba Zarzis International Airport (DTTJ) |
Arrival
| Time | 2026-04-17 21:10 |
|---|---|
| Airport | Tunis Carthage International Airport (DTTA) |
| Time | Latitude | Longitude | Altitude | Speed | Heading |
|---|---|---|---|---|---|
| 2026-04-17 20:23 | 33.87976 | 10.81387 | 1447 ft | 163 kts | 44° |
| 2026-04-17 20:23 | 33.89055 | 10.82013 | 1890 ft | 186 kts | 6° |
| 2026-04-17 20:24 | 33.90337 | 10.81655 | 2537 ft | 198 kts | 333° |
| 2026-04-17 20:24 | 33.91507 | 10.80671 | 3131 ft | 212 kts | 324° |
| 2026-04-17 20:24 | 33.92737 | 10.79473 | 3488 ft | 243 kts | 323° |
| 2026-04-17 20:24 | 33.94222 | 10.78474 | 4112 ft | 253 kts | 347° |
| 2026-04-17 20:25 | 33.95966 | 10.78073 | 5021 ft | 257 kts | 352° |
| 2026-04-17 20:25 | 33.97749 | 10.77762 | 5988 ft | 261 kts | 354° |
| 2026-04-17 20:25 | 33.99562 | 10.77480 | 6968 ft | 265 kts | 354° |
| 2026-04-17 20:25 | 34.01407 | 10.77195 | 7934 ft | 269 kts | 354° |
| 2026-04-17 20:26 | 34.03273 | 10.76905 | 8856 ft | 273 kts | 354° |
| 2026-04-17 20:26 | 34.05169 | 10.76608 | 9755 ft | 277 kts | 354° |
| 2026-04-17 20:26 | 34.07100 | 10.76304 | 10525 ft | 286 kts | 354° |
| 2026-04-17 20:26 | 34.09158 | 10.75981 | 10886 ft | 310 kts | 353° |
| 2026-04-17 20:27 | 34.11383 | 10.75630 | 11201 ft | 334 kts | 353° |
| 2026-04-17 20:27 | 34.13761 | 10.75254 | 11527 ft | 356 kts | 353° |
| 2026-04-17 20:27 | 34.15419 | 10.74991 | 11744 ft | 369 kts | 353° |
| 2026-04-17 20:27 | 34.18918 | 10.74435 | 12514 ft | 385 kts | 353° |
| 2026-04-17 20:28 | 34.21589 | 10.74010 | 13250 ft | 390 kts | 353° |
| 2026-04-17 20:28 | 34.23383 | 10.73725 | 13740 ft | 393 kts | 353° |
| 2026-04-17 20:28 | 34.26112 | 10.73290 | 14452 ft | 398 kts | 353° |
| 2026-04-17 20:28 | 34.28875 | 10.72858 | 15154 ft | 402 kts | 354° |
| 2026-04-17 20:29 | 34.31673 | 10.72529 | 15847 ft | 406 kts | 356° |
| 2026-04-17 20:29 | 34.34511 | 10.72295 | 16526 ft | 410 kts | 357° |
| 2026-04-17 20:29 | 34.37375 | 10.72106 | 17179 ft | 414 kts | 358° |
| 2026-04-17 20:29 | 34.40275 | 10.71929 | 17810 ft | 418 kts | 358° |
| 2026-04-17 20:30 | 34.46149 | 10.71553 | 19014 ft | 426 kts | 357° |
| 2026-04-17 20:30 | 34.49122 | 10.71305 | 19594 ft | 430 kts | 356° |
| 2026-04-17 20:30 | 34.52117 | 10.71007 | 20167 ft | 434 kts | 356° |
| 2026-04-17 20:31 | 34.55137 | 10.70683 | 20718 ft | 438 kts | 355° |
| 2026-04-17 20:31 | 34.58184 | 10.70347 | 21251 ft | 441 kts | 355° |
| 2026-04-17 20:31 | 34.61255 | 10.70009 | 21765 ft | 445 kts | 355° |
| 2026-04-17 20:31 | 34.64315 | 10.69675 | 22257 ft | 448 kts | 355° |
| 2026-04-17 20:32 | 34.67432 | 10.69340 | 22737 ft | 451 kts | 355° |
| 2026-04-17 20:32 | 34.70579 | 10.69058 | 23205 ft | 454 kts | 359° |
| 2026-04-17 20:32 | 34.73746 | 10.69084 | 23655 ft | 457 kts | 2° |
| 2026-04-17 20:32 | 34.76938 | 10.69202 | 24010 ft | 460 kts | 2° |
| 2026-04-17 20:33 | 34.80139 | 10.69376 | 24097 ft | 460 kts | 3° |
| 2026-04-17 20:33 | 34.83341 | 10.69581 | 24102 ft | 461 kts | 4° |
| 2026-04-17 20:33 | 34.86553 | 10.69798 | 24099 ft | 461 kts | 4° |
| 2026-04-17 20:33 | 34.89757 | 10.70016 | 24099 ft | 461 kts | 4° |
| 2026-04-17 20:34 | 34.92964 | 10.70231 | 24099 ft | 461 kts | 4° |
| 2026-04-17 20:34 | 34.96170 | 10.70440 | 24099 ft | 461 kts | 4° |
| 2026-04-17 20:34 | 34.99377 | 10.70632 | 24101 ft | 461 kts | 3° |
| 2026-04-17 20:34 | 35.02582 | 10.70809 | 24102 ft | 461 kts | 3° |
| 2026-04-17 20:35 | 35.05791 | 10.70978 | 24101 ft | 461 kts | 3° |
| 2026-04-17 20:35 | 35.09008 | 10.71145 | 24099 ft | 461 kts | 3° |
| 2026-04-17 20:35 | 35.12172 | 10.71310 | 24099 ft | 461 kts | 3° |
| 2026-04-17 20:35 | 35.15382 | 10.71479 | 24100 ft | 461 kts | 3° |
| 2026-04-17 20:36 | 35.18592 | 10.71649 | 24099 ft | 461 kts | 3° |
| 2026-04-17 20:36 | 35.21799 | 10.71821 | 24099 ft | 461 kts | 3° |
| 2026-04-17 20:36 | 35.25008 | 10.71993 | 24103 ft | 461 kts | 3° |
| 2026-04-17 20:36 | 35.28213 | 10.72165 | 24105 ft | 461 kts | 3° |
| 2026-04-17 20:37 | 35.31422 | 10.72338 | 24101 ft | 461 kts | 3° |
| 2026-04-17 20:37 | 35.34626 | 10.72511 | 24099 ft | 461 kts | 3° |
| 2026-04-17 20:37 | 35.37847 | 10.72685 | 24099 ft | 461 kts | 3° |
| 2026-04-17 20:37 | 35.41052 | 10.72858 | 24099 ft | 461 kts | 3° |
| 2026-04-17 20:38 | 35.44256 | 10.73034 | 24099 ft | 461 kts | 3° |
| 2026-04-17 20:38 | 35.47466 | 10.73215 | 24102 ft | 461 kts | 3° |
| 2026-04-17 20:38 | 35.50671 | 10.73398 | 24099 ft | 461 kts | 3° |
| 2026-04-17 20:38 | 35.53876 | 10.73581 | 24102 ft | 461 kts | 3° |
| 2026-04-17 20:39 | 35.57083 | 10.73765 | 24105 ft | 461 kts | 3° |
| 2026-04-17 20:39 | 35.60289 | 10.73949 | 24101 ft | 461 kts | 3° |
| 2026-04-17 20:39 | 35.63495 | 10.74133 | 24106 ft | 461 kts | 3° |
| 2026-04-17 20:39 | 35.66698 | 10.74318 | 24101 ft | 461 kts | 3° |
| 2026-04-17 20:40 | 35.69905 | 10.74502 | 24099 ft | 461 kts | 3° |
| 2026-04-17 20:40 | 35.73116 | 10.74688 | 24091 ft | 461 kts | 3° |
| 2026-04-17 20:40 | 35.76274 | 10.74870 | 23790 ft | 458 kts | 3° |
| 2026-04-17 20:40 | 35.79500 | 10.75057 | 23106 ft | 460 kts | 3° |
| 2026-04-17 20:41 | 35.82664 | 10.75240 | 22241 ft | 462 kts | 3° |
| 2026-04-17 20:41 | 35.85875 | 10.75427 | 21373 ft | 461 kts | 3° |
| 2026-04-17 20:41 | 35.89063 | 10.75612 | 20495 ft | 456 kts | 3° |
| 2026-04-17 20:41 | 35.92197 | 10.75794 | 19616 ft | 444 kts | 3° |
| 2026-04-17 20:42 | 35.95261 | 10.75971 | 18746 ft | 438 kts | 3° |
| 2026-04-17 20:42 | 35.98290 | 10.76146 | 17875 ft | 434 kts | 3° |
| 2026-04-17 20:42 | 36.01291 | 10.76318 | 16996 ft | 429 kts | 3° |
| 2026-04-17 20:42 | 36.04251 | 10.76489 | 16125 ft | 423 kts | 3° |
| 2026-04-17 20:43 | 36.07179 | 10.76657 | 15253 ft | 418 kts | 3° |
| 2026-04-17 20:43 | 36.10064 | 10.76823 | 14376 ft | 412 kts | 3° |
| 2026-04-17 20:43 | 36.12912 | 10.76986 | 13502 ft | 407 kts | 3° |
| 2026-04-17 20:43 | 36.15725 | 10.77147 | 12628 ft | 402 kts | 3° |
| 2026-04-17 20:44 | 36.18499 | 10.77305 | 11810 ft | 396 kts | 3° |
| 2026-04-17 20:44 | 36.21235 | 10.77461 | 11303 ft | 392 kts | 3° |
| 2026-04-17 20:44 | 36.23959 | 10.77616 | 11127 ft | 392 kts | 3° |
| 2026-04-17 20:44 | 36.26680 | 10.77719 | 11095 ft | 391 kts | 359° |
| 2026-04-17 20:45 | 36.29351 | 10.77245 | 11035 ft | 379 kts | 347° |
| 2026-04-17 20:45 | 36.31802 | 10.76347 | 10665 ft | 357 kts | 343° |
| 2026-04-17 20:45 | 36.34098 | 10.75431 | 10075 ft | 344 kts | 343° |
| 2026-04-17 20:45 | 36.36268 | 10.74559 | 9426 ft | 335 kts | 343° |
| 2026-04-17 20:46 | 36.38480 | 10.73668 | 8759 ft | 326 kts | 343° |
| 2026-04-17 20:46 | 36.40614 | 10.72806 | 8078 ft | 318 kts | 343° |
| 2026-04-17 20:46 | 36.42696 | 10.71963 | 7464 ft | 310 kts | 343° |
| 2026-04-17 20:46 | 36.44668 | 10.71162 | 7156 ft | 293 kts | 343° |
| 2026-04-17 20:47 | 36.46529 | 10.70402 | 7109 ft | 273 kts | 343° |
| 2026-04-17 20:47 | 36.48273 | 10.69521 | 7026 ft | 271 kts | 335° |
| 2026-04-17 20:47 | 36.49949 | 10.68441 | 6591 ft | 272 kts | 333° |
| 2026-04-17 20:47 | 36.51615 | 10.67323 | 5990 ft | 272 kts | 333° |
| 2026-04-17 20:48 | 36.53276 | 10.66204 | 5387 ft | 271 kts | 333° |
| 2026-04-17 20:48 | 36.54925 | 10.65090 | 4790 ft | 269 kts | 333° |
| 2026-04-17 20:48 | 36.56572 | 10.63978 | 4188 ft | 268 kts | 333° |
| 2026-04-17 20:48 | 36.58204 | 10.62875 | 3680 ft | 264 kts | 333° |
| 2026-04-17 20:49 | 36.59788 | 10.61802 | 3486 ft | 257 kts | 333° |
| 2026-04-17 20:49 | 36.61361 | 10.60735 | 3464 ft | 258 kts | 333° |
| 2026-04-17 20:49 | 36.62942 | 10.59661 | 3464 ft | 259 kts | 332° |
| 2026-04-17 20:49 | 36.64442 | 10.58422 | 3465 ft | 260 kts | 325° |
| 2026-04-17 20:50 | 36.65866 | 10.57034 | 3464 ft | 260 kts | 323° |
| 2026-04-17 20:50 | 36.67279 | 10.55625 | 3464 ft | 260 kts | 323° |
| 2026-04-17 20:50 | 36.68686 | 10.54218 | 3464 ft | 260 kts | 323° |
| 2026-04-17 20:50 | 36.70098 | 10.52805 | 3464 ft | 260 kts | 323° |
| 2026-04-17 20:51 | 36.71510 | 10.51392 | 3464 ft | 260 kts | 323° |
| 2026-04-17 20:51 | 36.72918 | 10.49983 | 3464 ft | 260 kts | 323° |
| 2026-04-17 20:51 | 36.74327 | 10.48569 | 3464 ft | 260 kts | 322° |
| 2026-04-17 20:51 | 36.75702 | 10.47102 | 3464 ft | 260 kts | 320° |
| 2026-04-17 20:52 | 36.77009 | 10.45538 | 3464 ft | 261 kts | 317° |
| 2026-04-17 20:52 | 36.78303 | 10.43940 | 3292 ft | 261 kts | 317° |
| 2026-04-17 20:52 | 36.79532 | 10.42317 | 3096 ft | 253 kts | 308° |
| 2026-04-17 20:52 | 36.80304 | 10.40417 | 3066 ft | 239 kts | 292° |
| 2026-04-17 20:53 | 36.80828 | 10.38517 | 3063 ft | 224 kts | 290° |
| 2026-04-17 20:53 | 36.81258 | 10.36688 | 3065 ft | 218 kts | 285° |
| 2026-04-17 20:53 | 36.81568 | 10.34829 | 3085 ft | 222 kts | 283° |
| 2026-04-17 20:53 | 36.81924 | 10.32825 | 3448 ft | 250 kts | 289° |
| 2026-04-17 20:54 | 36.82493 | 10.30709 | 3838 ft | 261 kts | 292° |
| 2026-04-17 20:54 | 36.83114 | 10.28565 | 3957 ft | 265 kts | 292° |
| 2026-04-17 20:54 | 36.83749 | 10.26397 | 3963 ft | 266 kts | 292° |
| 2026-04-17 20:54 | 36.84386 | 10.24223 | 3965 ft | 266 kts | 292° |
| 2026-04-17 20:55 | 36.85023 | 10.22052 | 3966 ft | 266 kts | 292° |
| 2026-04-17 20:55 | 36.85677 | 10.19889 | 3962 ft | 266 kts | 293° |
| 2026-04-17 20:55 | 36.86331 | 10.17767 | 3965 ft | 266 kts | 293° |
| 2026-04-17 20:55 | 36.86750 | 10.15521 | 3961 ft | 269 kts | 271° |
| 2026-04-17 20:56 | 36.86341 | 10.13328 | 3965 ft | 271 kts | 243° |
| 2026-04-17 20:56 | 36.85141 | 10.11523 | 3969 ft | 273 kts | 220° |
| 2026-04-17 20:56 | 36.83602 | 10.10132 | 3964 ft | 274 kts | 214° |
| 2026-04-17 20:56 | 36.82005 | 10.08819 | 3964 ft | 275 kts | 213° |
| 2026-04-17 20:57 | 36.80404 | 10.07517 | 3966 ft | 275 kts | 213° |
| 2026-04-17 20:57 | 36.78803 | 10.06218 | 3961 ft | 275 kts | 213° |
| 2026-04-17 20:57 | 36.77200 | 10.04918 | 3964 ft | 275 kts | 213° |
| 2026-04-17 20:57 | 36.75592 | 10.03625 | 3964 ft | 275 kts | 211° |
| 2026-04-17 20:58 | 36.73807 | 10.02860 | 3965 ft | 273 kts | 184° |
| 2026-04-17 20:58 | 36.71960 | 10.03200 | 3966 ft | 269 kts | 155° |
| 2026-04-17 20:58 | 36.70483 | 10.04556 | 3968 ft | 264 kts | 126° |
| 2026-04-17 20:58 | 36.69642 | 10.06563 | 3966 ft | 261 kts | 107° |
| 2026-04-17 20:59 | 36.69114 | 10.08724 | 3967 ft | 262 kts | 103° |
| 2026-04-17 20:59 | 36.68627 | 10.10916 | 3963 ft | 262 kts | 103° |
| 2026-04-17 20:59 | 36.68146 | 10.13106 | 3963 ft | 262 kts | 103° |
| 2026-04-17 20:59 | 36.67665 | 10.15295 | 3967 ft | 262 kts | 103° |
| 2026-04-17 21:00 | 36.67185 | 10.17484 | 3964 ft | 262 kts | 103° |
| 2026-04-17 21:00 | 36.66704 | 10.19672 | 3965 ft | 262 kts | 103° |
| 2026-04-17 21:00 | 36.66331 | 10.21884 | 3966 ft | 261 kts | 96° |
| 2026-04-17 21:00 | 36.66134 | 10.24126 | 3966 ft | 260 kts | 93° |
| 2026-04-17 21:01 | 36.65967 | 10.26372 | 3965 ft | 260 kts | 93° |
| 2026-04-17 21:01 | 36.65803 | 10.28617 | 3965 ft | 260 kts | 93° |
| 2026-04-17 21:01 | 36.65640 | 10.30863 | 3965 ft | 260 kts | 93° |
| 2026-04-17 21:01 | 36.65479 | 10.33081 | 3963 ft | 260 kts | 93° |
| 2026-04-17 21:02 | 36.65316 | 10.35326 | 3960 ft | 259 kts | 93° |
| 2026-04-17 21:02 | 36.65156 | 10.37509 | 3965 ft | 246 kts | 93° |
| 2026-04-17 21:02 | 36.65001 | 10.39591 | 3967 ft | 239 kts | 93° |
| 2026-04-17 21:02 | 36.64848 | 10.41656 | 3967 ft | 240 kts | 93° |
| 2026-04-17 21:03 | 36.64693 | 10.43726 | 3965 ft | 240 kts | 93° |
| 2026-04-17 21:03 | 36.64536 | 10.45802 | 3964 ft | 240 kts | 93° |
| 2026-04-17 21:03 | 36.64380 | 10.47877 | 3934 ft | 241 kts | 93° |
| 2026-04-17 21:03 | 36.64353 | 10.49957 | 3561 ft | 241 kts | 76° |
| 2026-04-17 21:04 | 36.65085 | 10.51797 | 3176 ft | 237 kts | 45° |
| 2026-04-17 21:04 | 36.66454 | 10.52810 | 3067 ft | 228 kts | 13° |
| 2026-04-17 21:04 | 36.68023 | 10.52735 | 3068 ft | 231 kts | 344° |
| 2026-04-17 21:04 | 36.69525 | 10.51949 | 3067 ft | 241 kts | 336° |
| 2026-04-17 21:05 | 36.71053 | 10.50929 | 3061 ft | 255 kts | 328° |
| 2026-04-17 21:05 | 36.72501 | 10.49619 | 3060 ft | 258 kts | 324° |
| 2026-04-17 21:05 | 36.73912 | 10.48226 | 3065 ft | 259 kts | 323° |
| 2026-04-17 21:05 | 36.75275 | 10.46856 | 3063 ft | 247 kts | 323° |
| 2026-04-17 21:06 | 36.76560 | 10.45557 | 3093 ft | 226 kts | 323° |
| 2026-04-17 21:06 | 36.77672 | 10.44304 | 3077 ft | 207 kts | 313° |
| 2026-04-17 21:06 | 36.78397 | 10.42824 | 3078 ft | 198 kts | 298° |
| 2026-04-17 21:06 | 36.78955 | 10.41250 | 3063 ft | 198 kts | 296° |
| 2026-04-17 21:07 | 36.79483 | 10.39663 | 3060 ft | 198 kts | 295° |
| 2026-04-17 21:07 | 36.80007 | 10.38074 | 2788 ft | 198 kts | 295° |
| 2026-04-17 21:07 | 36.80549 | 10.36450 | 2234 ft | 208 kts | 295° |
| 2026-04-17 21:07 | 36.81115 | 10.34752 | 1732 ft | 213 kts | 295° |
| 2026-04-17 21:08 | 36.81668 | 10.33085 | 1477 ft | 201 kts | 295° |
| 2026-04-17 21:08 | 36.82180 | 10.31543 | 1223 ft | 185 kts | 295° |
| 2026-04-17 21:08 | 36.82624 | 10.30205 | 1031 ft | 170 kts | 295° |
| 2026-04-17 21:08 | 36.83058 | 10.28902 | 796 ft | 155 kts | 296° |
| 2026-04-17 21:09 | 36.83454 | 10.27709 | 592 ft | 141 kts | 296° |
| 2026-04-17 21:09 | 36.83818 | 10.26614 | 412 ft | 133 kts | 296° |
| 2026-04-17 21:09 | 36.84153 | 10.25608 | 248 ft | 132 kts | 296° |
| 2026-04-17 21:09 | 36.84470 | 10.24652 | 93 ft | 132 kts | 295° |
| 2026-04-17 21:10 | 36.84775 | 10.23734 | 32 ft | 107 kts | 292° |
| 2026-04-17 21:10 | 36.84990 | 10.23087 | 32 ft | 54 kts | 292° |
| 2026-04-17 21:10 | 36.85073 | 10.22835 | 35 ft | 21 kts | 292° |
| 2026-04-17 21:10 | 36.85114 | 10.22712 | 38 ft | 27 kts | 292° |
| 2026-04-17 21:11 | 36.85162 | 10.22450 | 38 ft | 13 kts | 223° |
| 2026-04-17 21:11 | 36.85084 | 10.22431 | 35 ft | 6 kts | 185° |
| 2026-04-17 21:11 | 36.85045 | 10.22416 | 35 ft | 6 kts | 201° |
| 2026-04-17 21:11 | 36.85018 | 10.22403 | 33 ft | 7 kts | 201° |
| 2026-04-17 21:12 | 36.85009 | 10.22399 | 34 ft | 0 kts | 194° |
| 2026-04-17 21:12 | 36.84999 | 10.22396 | 34 ft | 7 kts | 194° |
| 2026-04-17 21:12 | 36.84915 | 10.22370 | 34 ft | 14 kts | 192° |
| 2026-04-17 21:13 | 36.84820 | 10.22343 | 33 ft | 14 kts | 192° |
| 2026-04-17 21:13 | 36.84723 | 10.22316 | 33 ft | 14 kts | 192° |
| 2026-04-17 21:13 | 36.84624 | 10.22289 | 33 ft | 15 kts | 192° |
| 2026-04-17 21:13 | 36.84524 | 10.22259 | 33 ft | 14 kts | 202° |
| 2026-04-17 21:14 | 36.84501 | 10.22161 | 33 ft | 13 kts | 281° |
| 2026-04-17 21:14 | 36.84480 | 10.22060 | 33 ft | 12 kts | 236° |
| 2026-04-17 21:14 | 36.84423 | 10.21983 | 33 ft | 12 kts | 207° |
| 2026-04-17 21:14 | 36.84365 | 10.21951 | 31 ft | 6 kts | 247° |
| 2026-04-17 21:15 | 36.84361 | 10.21911 | 33 ft | 4 kts | 277° |
| 2026-04-17 21:15 | 36.84365 | 10.21879 | 33 ft | 3 kts | 284° |
| 2026-04-17 21:15 | 36.84368 | 10.21863 | 32 ft | 0 kts | 282° |